sensor_id;sensor_type;location;lat;lon;timestamp;temperature;humidity
38582;DHT22;24349;53.720;10.014;2023-06-10T00:02:10;14.40;99.90
38582;DHT22;24349;53.720;10.014;2023-06-10T00:04:36;14.40;99.90
38582;DHT22;24349;53.720;10.014;2023-06-10T00:07:05;14.20;99.90
38582;DHT22;24349;53.720;10.014;2023-06-10T00:09:37;14.30;99.90
38582;DHT22;24349;53.720;10.014;2023-06-10T00:12:07;14.20;99.90
38582;DHT22;24349;53.720;10.014;2023-06-10T00:14:35;14.20;99.90
38582;DHT22;24349;53.720;10.014;2023-06-10T00:17:00;14.30;99.90
38582;DHT22;24349;53.720;10.014;2023-06-10T00:19:26;14.30;99.90
38582;DHT22;24349;53.720;10.014;2023-06-10T00:21:56;14.20;99.90
38582;DHT22;24349;53.720;10.014;2023-06-10T00:24:21;14.20;99.90
38582;DHT22;24349;53.720;10.014;2023-06-10T00:26:48;14.30;99.90
38582;DHT22;24349;53.720;10.014;2023-06-10T00:29:13;14.20;99.90
38582;DHT22;24349;53.720;10.014;2023-06-10T00:31:40;14.20;99.90
38582;DHT22;24349;53.720;10.014;2023-06-10T00:34:07;14.10;99.90
38582;DHT22;24349;53.720;10.014;2023-06-10T00:36:32;14.10;99.90
38582;DHT22;24349;53.720;10.014;2023-06-10T00:38:58;14.10;99.90
38582;DHT22;24349;53.720;10.014;2023-06-10T00:41:24;14.00;99.90
38582;DHT22;24349;53.720;10.014;2023-06-10T00:43:52;14.00;99.90
38582;DHT22;24349;53.720;10.014;2023-06-10T00:46:17;14.00;99.90
38582;DHT22;24349;53.720;10.014;2023-06-10T00:48:45;13.90;99.90
38582;DHT22;24349;53.720;10.014;2023-06-10T00:51:11;13.90;99.90
38582;DHT22;24349;53.720;10.014;2023-06-10T00:53:39;13.90;99.90
38582;DHT22;24349;53.720;10.014;2023-06-10T00:56:05;13.80;99.90
38582;DHT22;24349;53.720;10.014;2023-06-10T00:58:31;13.80;99.90
38582;DHT22;24349;53.720;10.014;2023-06-10T01:00:57;13.70;99.90
38582;DHT22;24349;53.720;10.014;2023-06-10T01:03:23;13.70;99.90
38582;DHT22;24349;53.720;10.014;2023-06-10T01:05:54;13.70;99.90
38582;DHT22;24349;53.720;10.014;2023-06-10T01:11:00;13.60;99.90
38582;DHT22;24349;53.720;10.014;2023-06-10T01:13:28;13.60;99.90
38582;DHT22;24349;53.720;10.014;2023-06-10T01:15:55;13.60;99.90
38582;DHT22;24349;53.720;10.014;2023-06-10T01:18:21;13.60;99.90
38582;DHT22;24349;53.720;10.014;2023-06-10T01:20:48;13.60;99.90
38582;DHT22;24349;53.720;10.014;2023-06-10T01:23:14;13.50;99.90
38582;DHT22;24349;53.720;10.014;2023-06-10T01:25:47;13.50;99.90
38582;DHT22;24349;53.720;10.014;2023-06-10T01:28:25;13.40;99.90
38582;DHT22;24349;53.720;10.014;2023-06-10T01:31:17;13.40;99.90
38582;DHT22;24349;53.720;10.014;2023-06-10T01:33:49;13.30;99.90
38582;DHT22;24349;53.720;10.014;2023-06-10T01:36:17;13.30;99.90
38582;DHT22;24349;53.720;10.014;2023-06-10T01:38:46;13.40;99.90
38582;DHT22;24349;53.720;10.014;2023-06-10T01:41:14;13.40;99.90
38582;DHT22;24349;53.720;10.014;2023-06-10T01:43:42;13.30;99.90
38582;DHT22;24349;53.720;10.014;2023-06-10T01:46:09;13.30;99.90
38582;DHT22;24349;53.720;10.014;2023-06-10T01:48:35;13.30;99.90
38582;DHT22;24349;53.720;10.014;2023-06-10T01:51:00;13.30;99.90
38582;DHT22;24349;53.720;10.014;2023-06-10T01:53:26;13.20;99.90
38582;DHT22;24349;53.720;10.014;2023-06-10T01:55:52;13.20;99.90
38582;DHT22;24349;53.720;10.014;2023-06-10T01:58:17;13.20;99.90
38582;DHT22;24349;53.720;10.014;2023-06-10T02:00:43;13.20;99.90
38582;DHT22;24349;53.720;10.014;2023-06-10T02:03:09;13.20;99.90
38582;DHT22;24349;53.720;10.014;2023-06-10T02:05:34;13.10;99.90
38582;DHT22;24349;53.720;10.014;2023-06-10T02:08:00;13.10;99.90
38582;DHT22;24349;53.720;10.014;2023-06-10T02:10:26;13.00;99.90
38582;DHT22;24349;53.720;10.014;2023-06-10T02:12:51;13.00;99.90
38582;DHT22;24349;53.720;10.014;2023-06-10T02:15:17;12.90;99.90
38582;DHT22;24349;53.720;10.014;2023-06-10T02:17:43;12.80;99.90
38582;DHT22;24349;53.720;10.014;2023-06-10T02:20:10;12.80;99.90
38582;DHT22;24349;53.720;10.014;2023-06-10T02:22:36;12.70;99.90
38582;DHT22;24349;53.720;10.014;2023-06-10T02:25:03;12.70;99.90
38582;DHT22;24349;53.720;10.014;2023-06-10T02:27:29;12.60;99.90
38582;DHT22;24349;53.720;10.014;2023-06-10T02:29:56;12.60;99.90
38582;DHT22;24349;53.720;10.014;2023-06-10T02:32:22;12.60;99.90
38582;DHT22;24349;53.720;10.014;2023-06-10T02:34:47;12.60;99.90
38582;DHT22;24349;53.720;10.014;2023-06-10T02:37:14;12.60;99.90
38582;DHT22;24349;53.720;10.014;2023-06-10T02:39:41;12.50;99.90
38582;DHT22;24349;53.720;10.014;2023-06-10T02:42:06;12.50;99.90
38582;DHT22;24349;53.720;10.014;2023-06-10T02:44:32;12.50;99.90
38582;DHT22;24349;53.720;10.014;2023-06-10T02:46:58;12.50;99.90
38582;DHT22;24349;53.720;10.014;2023-06-10T02:49:23;12.40;99.90
38582;DHT22;24349;53.720;10.014;2023-06-10T02:51:50;12.40;99.90
38582;DHT22;24349;53.720;10.014;2023-06-10T02:54:19;12.40;99.90
38582;DHT22;24349;53.720;10.014;2023-06-10T02:56:45;12.50;99.90
38582;DHT22;24349;53.720;10.014;2023-06-10T02:59:11;12.50;99.90
38582;DHT22;24349;53.720;10.014;2023-06-10T03:01:37;12.60;99.90
38582;DHT22;24349;53.720;10.014;2023-06-10T03:04:06;12.50;99.90
38582;DHT22;24349;53.720;10.014;2023-06-10T03:06:31;12.50;99.90
38582;DHT22;24349;53.720;10.014;2023-06-10T03:08:59;12.60;99.90
38582;DHT22;24349;53.720;10.014;2023-06-10T03:11:25;12.60;99.90
38582;DHT22;24349;53.720;10.014;2023-06-10T03:13:51;12.70;99.90
38582;DHT22;24349;53.720;10.014;2023-06-10T03:16:19;12.80;99.90
38582;DHT22;24349;53.720;10.014;2023-06-10T03:18:45;12.80;99.90
38582;DHT22;24349;53.720;10.014;2023-06-10T03:21:11;12.90;99.90
38582;DHT22;24349;53.720;10.014;2023-06-10T03:23:37;12.90;99.90
38582;DHT22;24349;53.720;10.014;2023-06-10T03:26:04;13.00;99.90
38582;DHT22;24349;53.720;10.014;2023-06-10T03:28:30;13.00;99.90
38582;DHT22;24349;53.720;10.014;2023-06-10T03:30:56;13.00;99.90
38582;DHT22;24349;53.720;10.014;2023-06-10T03:33:22;13.00;99.90
38582;DHT22;24349;53.720;10.014;2023-06-10T03:35:47;12.90;99.90
38582;DHT22;24349;53.720;10.014;2023-06-10T03:38:13;13.10;99.90
38582;DHT22;24349;53.720;10.014;2023-06-10T03:40:42;13.10;99.90
38582;DHT22;24349;53.720;10.014;2023-06-10T03:43:07;13.20;99.90
38582;DHT22;24349;53.720;10.014;2023-06-10T03:45:33;13.20;99.90
38582;DHT22;24349;53.720;10.014;2023-06-10T03:48:00;13.30;99.90
38582;DHT22;24349;53.720;10.014;2023-06-10T03:50:25;13.30;99.90
38582;DHT22;24349;53.720;10.014;2023-06-10T03:52:51;13.40;99.90
38582;DHT22;24349;53.720;10.014;2023-06-10T03:55:17;13.40;99.90
38582;DHT22;24349;53.720;10.014;2023-06-10T03:57:43;13.40;99.90
38582;DHT22;24349;53.720;10.014;2023-06-10T04:00:10;13.40;99.90
38582;DHT22;24349;53.720;10.014;2023-06-10T04:02:37;13.50;99.90
38582;DHT22;24349;53.720;10.014;2023-06-10T04:05:07;13.50;99.90
38582;DHT22;24349;53.720;10.014;2023-06-10T04:07:32;13.60;99.90
38582;DHT22;24349;53.720;10.014;2023-06-10T04:09:59;13.60;99.90
38582;DHT22;24349;53.720;10.014;2023-06-10T04:12:25;13.70;99.90
38582;DHT22;24349;53.720;10.014;2023-06-10T04:14:50;13.70;99.90
38582;DHT22;24349;53.720;10.014;2023-06-10T04:17:17;13.80;99.90
38582;DHT22;24349;53.720;10.014;2023-06-10T04:19:43;13.80;99.90
38582;DHT22;24349;53.720;10.014;2023-06-10T04:22:08;13.80;99.90
38582;DHT22;24349;53.720;10.014;2023-06-10T04:24:34;13.90;99.90
38582;DHT22;24349;53.720;10.014;2023-06-10T04:26:59;14.00;99.90
38582;DHT22;24349;53.720;10.014;2023-06-10T04:29:26;14.10;99.90
38582;DHT22;24349;53.720;10.014;2023-06-10T04:31:51;14.20;99.90
38582;DHT22;24349;53.720;10.014;2023-06-10T04:34:17;14.30;99.90
38582;DHT22;24349;53.720;10.014;2023-06-10T04:36:42;14.40;99.90
38582;DHT22;24349;53.720;10.014;2023-06-10T04:39:08;14.60;99.90
38582;DHT22;24349;53.720;10.014;2023-06-10T04:41:34;14.70;99.90
38582;DHT22;24349;53.720;10.014;2023-06-10T04:43:59;14.80;99.90
38582;DHT22;24349;53.720;10.014;2023-06-10T04:46:25;15.00;99.90
38582;DHT22;24349;53.720;10.014;2023-06-10T04:48:50;15.10;99.90
38582;DHT22;24349;53.720;10.014;2023-06-10T04:51:16;15.20;99.90
38582;DHT22;24349;53.720;10.014;2023-06-10T04:53:42;15.30;99.90
38582;DHT22;24349;53.720;10.014;2023-06-10T04:56:08;15.40;99.90
38582;DHT22;24349;53.720;10.014;2023-06-10T04:58:33;15.40;99.90
38582;DHT22;24349;53.720;10.014;2023-06-10T05:00:59;15.50;99.90
38582;DHT22;24349;53.720;10.014;2023-06-10T05:03:26;15.60;99.90
38582;DHT22;24349;53.720;10.014;2023-06-10T05:05:51;15.70;99.90
38582;DHT22;24349;53.720;10.014;2023-06-10T05:08:18;15.90;99.90
38582;DHT22;24349;53.720;10.014;2023-06-10T05:10:43;16.20;99.90
38582;DHT22;24349;53.720;10.014;2023-06-10T05:13:09;16.40;99.90
38582;DHT22;24349;53.720;10.014;2023-06-10T05:15:35;16.50;99.90
38582;DHT22;24349;53.720;10.014;2023-06-10T05:18:00;16.50;99.90
38582;DHT22;24349;53.720;10.014;2023-06-10T05:20:28;16.60;99.90
38582;DHT22;24349;53.720;10.014;2023-06-10T05:22:54;16.60;99.90
38582;DHT22;24349;53.720;10.014;2023-06-10T05:25:21;16.70;99.90
38582;DHT22;24349;53.720;10.014;2023-06-10T05:27:46;16.80;99.90
38582;DHT22;24349;53.720;10.014;2023-06-10T05:30:12;17.10;99.90
38582;DHT22;24349;53.720;10.014;2023-06-10T05:32:38;17.10;99.90
38582;DHT22;24349;53.720;10.014;2023-06-10T05:35:04;17.10;99.90
38582;DHT22;24349;53.720;10.014;2023-06-10T05:37:30;17.20;99.90
38582;DHT22;24349;53.720;10.014;2023-06-10T05:39:55;17.20;99.90
38582;DHT22;24349;53.720;10.014;2023-06-10T05:42:21;17.30;99.90
38582;DHT22;24349;53.720;10.014;2023-06-10T05:44:46;17.40;99.90
38582;DHT22;24349;53.720;10.014;2023-06-10T05:47:12;17.60;99.90
38582;DHT22;24349;53.720;10.014;2023-06-10T05:49:38;17.80;99.90
38582;DHT22;24349;53.720;10.014;2023-06-10T05:52:04;17.80;99.90
38582;DHT22;24349;53.720;10.014;2023-06-10T05:54:29;17.90;99.90
38582;DHT22;24349;53.720;10.014;2023-06-10T05:56:55;17.90;99.90
38582;DHT22;24349;53.720;10.014;2023-06-10T05:59:21;17.80;99.90
38582;DHT22;24349;53.720;10.014;2023-06-10T06:01:48;17.90;99.90
38582;DHT22;24349;53.720;10.014;2023-06-10T06:04:15;18.10;99.90
38582;DHT22;24349;53.720;10.014;2023-06-10T06:06:41;18.40;99.90
38582;DHT22;24349;53.720;10.014;2023-06-10T06:09:06;18.60;99.90
38582;DHT22;24349;53.720;10.014;2023-06-10T06:11:34;18.70;99.90
38582;DHT22;24349;53.720;10.014;2023-06-10T06:13:59;19.00;99.90
38582;DHT22;24349;53.720;10.014;2023-06-10T06:16:25;19.20;92.70
38582;DHT22;24349;53.720;10.014;2023-06-10T06:18:51;19.30;93.90
38582;DHT22;24349;53.720;10.014;2023-06-10T06:21:16;19.50;75.80
38582;DHT22;24349;53.720;10.014;2023-06-10T06:23:42;19.70;82.50
38582;DHT22;24349;53.720;10.014;2023-06-10T06:26:07;19.70;66.10
38582;DHT22;24349;53.720;10.014;2023-06-10T06:28:33;19.80;75.50
38582;DHT22;24349;53.720;10.014;2023-06-10T06:30:59;20.00;52.70
38582;DHT22;24349;53.720;10.014;2023-06-10T06:33:24;20.30;48.00
38582;DHT22;24349;53.720;10.014;2023-06-10T06:35:51;20.20;1.00
38582;DHT22;24349;53.720;10.014;2023-06-10T06:38:17;20.20;1.00
38582;DHT22;24349;53.720;10.014;2023-06-10T06:40:43;20.70;1.00
38582;DHT22;24349;53.720;10.014;2023-06-10T06:43:08;21.00;99.90
38582;DHT22;24349;53.720;10.014;2023-06-10T06:45:34;21.30;99.90
38582;DHT22;24349;53.720;10.014;2023-06-10T06:48:00;21.40;99.90
38582;DHT22;24349;53.720;10.014;2023-06-10T06:50:25;21.70;1.00
38582;DHT22;24349;53.720;10.014;2023-06-10T06:52:51;21.90;99.90
38582;DHT22;24349;53.720;10.014;2023-06-10T06:55:17;22.00;54.10
38582;DHT22;24349;53.720;10.014;2023-06-10T06:57:42;22.50;99.90
38582;DHT22;24349;53.720;10.014;2023-06-10T07:00:08;22.50;99.90
38582;DHT22;24349;53.720;10.014;2023-06-10T07:02:35;22.50;99.90
38582;DHT22;24349;53.720;10.014;2023-06-10T07:05:01;22.70;99.90
38582;DHT22;24349;53.720;10.014;2023-06-10T07:07:27;23.10;99.90
38582;DHT22;24349;53.720;10.014;2023-06-10T07:09:52;23.30;63.80
38582;DHT22;24349;53.720;10.014;2023-06-10T07:12:18;23.60;99.90
38582;DHT22;24349;53.720;10.014;2023-06-10T07:14:44;23.30;99.90
38582;DHT22;24349;53.720;10.014;2023-06-10T07:17:10;23.60;99.90
38582;DHT22;24349;53.720;10.014;2023-06-10T07:19:36;23.80;1.00
38582;DHT22;24349;53.720;10.014;2023-06-10T07:22:01;23.70;99.90
38582;DHT22;24349;53.720;10.014;2023-06-10T07:24:27;24.10;99.90
38582;DHT22;24349;53.720;10.014;2023-06-10T07:26:52;24.40;99.90
38582;DHT22;24349;53.720;10.014;2023-06-10T07:29:18;25.00;99.90
38582;DHT22;24349;53.720;10.014;2023-06-10T07:31:44;25.00;64.80
38582;DHT22;24349;53.720;10.014;2023-06-10T07:34:09;24.70;99.90
38582;DHT22;24349;53.720;10.014;2023-06-10T07:36:35;24.70;85.80
38582;DHT22;24349;53.720;10.014;2023-06-10T07:39:02;24.80;84.60
38582;DHT22;24349;53.720;10.014;2023-06-10T07:41:27;25.10;21.80
38582;DHT22;24349;53.720;10.014;2023-06-10T07:43:53;24.90;1.00
38582;DHT22;24349;53.720;10.014;2023-06-10T07:46:22;25.30;1.00
38582;DHT22;24349;53.720;10.014;2023-06-10T07:48:48;25.60;1.00
38582;DHT22;24349;53.720;10.014;2023-06-10T07:51:16;26.10;99.90
38582;DHT22;24349;53.720;10.014;2023-06-10T07:53:41;26.50;99.90
38582;DHT22;24349;53.720;10.014;2023-06-10T07:56:07;26.30;99.90
38582;DHT22;24349;53.720;10.014;2023-06-10T07:58:32;26.00;99.90
38582;DHT22;24349;53.720;10.014;2023-06-10T08:00:58;26.00;99.90
38582;DHT22;24349;53.720;10.014;2023-06-10T08:03:24;26.30;1.00
38582;DHT22;24349;53.720;10.014;2023-06-10T08:05:49;25.80;99.90
38582;DHT22;24349;53.720;10.014;2023-06-10T08:08:15;25.50;99.90
38582;DHT22;24349;53.720;10.014;2023-06-10T08:10:41;25.10;1.00
38582;DHT22;24349;53.720;10.014;2023-06-10T08:13:08;25.00;27.40
38582;DHT22;24349;53.720;10.014;2023-06-10T08:15:33;24.80;99.90
38582;DHT22;24349;53.720;10.014;2023-06-10T08:17:59;24.80;99.70
38582;DHT22;24349;53.720;10.014;2023-06-10T08:20:25;24.50;92.80
38582;DHT22;24349;53.720;10.014;2023-06-10T08:22:50;24.30;99.90
38582;DHT22;24349;53.720;10.014;2023-06-10T08:25:16;24.30;99.90
38582;DHT22;24349;53.720;10.014;2023-06-10T08:27:42;24.10;5.50
38582;DHT22;24349;53.720;10.014;2023-06-10T08:30:08;24.20;1.00
38582;DHT22;24349;53.720;10.014;2023-06-10T08:32:36;24.50;99.90
38582;DHT22;24349;53.720;10.014;2023-06-10T08:35:02;24.60;1.00
38582;DHT22;24349;53.720;10.014;2023-06-10T08:37:28;24.80;1.00
38582;DHT22;24349;53.720;10.014;2023-06-10T08:39:54;24.70;5.80
38582;DHT22;24349;53.720;10.014;2023-06-10T08:42:35;24.70;94.70
38582;DHT22;24349;53.720;10.014;2023-06-10T08:45:03;24.40;1.00
38582;DHT22;24349;53.720;10.014;2023-06-10T08:47:30;24.30;99.90
38582;DHT22;24349;53.720;10.014;2023-06-10T08:50:03;24.50;99.90
38582;DHT22;24349;53.720;10.014;2023-06-10T08:52:35;24.60;1.00
38582;DHT22;24349;53.720;10.014;2023-06-10T08:55:11;24.90;99.90
38582;DHT22;24349;53.720;10.014;2023-06-10T08:57:37;25.20;91.30
38582;DHT22;24349;53.720;10.014;2023-06-10T09:00:05;25.10;23.00
38582;DHT22;24349;53.720;10.014;2023-06-10T09:02:31;25.40;71.80
38582;DHT22;24349;53.720;10.014;2023-06-10T09:05:00;25.30;99.90
38582;DHT22;24349;53.720;10.014;2023-06-10T09:07:26;25.00;12.00
38582;DHT22;24349;53.720;10.014;2023-06-10T09:09:53;25.30;53.30
38582;DHT22;24349;53.720;10.014;2023-06-10T09:12:20;25.50;1.00
38582;DHT22;24349;53.720;10.014;2023-06-10T09:14:45;25.40;99.90
38582;DHT22;24349;53.720;10.014;2023-06-10T09:17:11;25.40;99.90
38582;DHT22;24349;53.720;10.014;2023-06-10T09:19:38;25.70;1.00
38582;DHT22;24349;53.720;10.014;2023-06-10T09:22:04;25.30;99.90
38582;DHT22;24349;53.720;10.014;2023-06-10T09:24:29;25.40;98.60
38582;DHT22;24349;53.720;10.014;2023-06-10T09:27:04;25.60;99.90
38582;DHT22;24349;53.720;10.014;2023-06-10T09:29:30;25.60;99.90
38582;DHT22;24349;53.720;10.014;2023-06-10T09:31:56;25.50;1.00
38582;DHT22;24349;53.720;10.014;2023-06-10T09:34:25;25.50;99.90
38582;DHT22;24349;53.720;10.014;2023-06-10T09:36:50;25.50;1.00
38582;DHT22;24349;53.720;10.014;2023-06-10T09:39:18;25.50;1.00
38582;DHT22;24349;53.720;10.014;2023-06-10T09:41:45;26.10;99.90
38582;DHT22;24349;53.720;10.014;2023-06-10T09:44:19;26.10;14.00
38582;DHT22;24349;53.720;10.014;2023-06-10T09:46:46;26.00;99.90
38582;DHT22;24349;53.720;10.014;2023-06-10T09:49:12;26.20;99.90
38582;DHT22;24349;53.720;10.014;2023-06-10T09:51:40;26.70;99.90
38582;DHT22;24349;53.720;10.014;2023-06-10T09:54:13;26.90;80.40
38582;DHT22;24349;53.720;10.014;2023-06-10T09:56:39;26.90;99.90
38582;DHT22;24349;53.720;10.014;2023-06-10T09:59:08;26.70;1.00
38582;DHT22;24349;53.720;10.014;2023-06-10T10:01:34;26.80;60.20
38582;DHT22;24349;53.720;10.014;2023-06-10T10:04:00;27.10;1.00
38582;DHT22;24349;53.720;10.014;2023-06-10T10:06:27;27.50;1.00
38582;DHT22;24349;53.720;10.014;2023-06-10T10:08:54;27.70;99.90
38582;DHT22;24349;53.720;10.014;2023-06-10T10:11:21;27.10;99.90
38582;DHT22;24349;53.720;10.014;2023-06-10T10:13:51;26.60;99.90
38582;DHT22;24349;53.720;10.014;2023-06-10T10:16:20;26.50;80.20
38582;DHT22;24349;53.720;10.014;2023-06-10T10:18:57;27.10;1.00
38582;DHT22;24349;53.720;10.014;2023-06-10T10:21:29;27.00;1.00
38582;DHT22;24349;53.720;10.014;2023-06-10T10:27:07;27.70;99.90
38582;DHT22;24349;53.720;10.014;2023-06-10T10:29:40;27.60;99.90
38582;DHT22;24349;53.720;10.014;2023-06-10T10:32:07;27.50;1.00
38582;DHT22;24349;53.720;10.014;2023-06-10T10:34:56;27.30;99.90
38582;DHT22;24349;53.720;10.014;2023-06-10T10:37:24;27.50;99.90
38582;DHT22;24349;53.720;10.014;2023-06-10T10:39:51;27.40;99.90
38582;DHT22;24349;53.720;10.014;2023-06-10T10:42:18;27.20;1.00
38582;DHT22;24349;53.720;10.014;2023-06-10T10:44:44;27.30;1.00
38582;DHT22;24349;53.720;10.014;2023-06-10T10:47:10;27.40;99.90
38582;DHT22;24349;53.720;10.014;2023-06-10T10:49:37;27.90;99.90
38582;DHT22;24349;53.720;10.014;2023-06-10T10:52:04;28.00;99.90
38582;DHT22;24349;53.720;10.014;2023-06-10T10:54:34;28.10;99.90
38582;DHT22;24349;53.720;10.014;2023-06-10T11:02:42;27.80;99.90
38582;DHT22;24349;53.720;10.014;2023-06-10T11:05:10;27.70;99.90
38582;DHT22;24349;53.720;10.014;2023-06-10T11:07:36;27.70;99.90
38582;DHT22;24349;53.720;10.014;2023-06-10T11:10:10;27.70;99.90
38582;DHT22;24349;53.720;10.014;2023-06-10T11:12:41;28.20;99.90
38582;DHT22;24349;53.720;10.014;2023-06-10T11:15:07;28.70;99.90
38582;DHT22;24349;53.720;10.014;2023-06-10T11:17:33;28.50;99.90
38582;DHT22;24349;53.720;10.014;2023-06-10T11:19:59;28.20;99.90
38582;DHT22;24349;53.720;10.014;2023-06-10T11:22:25;28.00;99.90
38582;DHT22;24349;53.720;10.014;2023-06-10T11:24:51;28.00;99.90
38582;DHT22;24349;53.720;10.014;2023-06-10T11:27:23;28.60;99.90
38582;DHT22;24349;53.720;10.014;2023-06-10T11:32:31;28.50;99.90
38582;DHT22;24349;53.720;10.014;2023-06-10T11:34:57;28.30;99.90
38582;DHT22;24349;53.720;10.014;2023-06-10T11:37:23;28.50;99.90
38582;DHT22;24349;53.720;10.014;2023-06-10T11:39:53;28.40;99.90
38582;DHT22;24349;53.720;10.014;2023-06-10T11:42:19;28.80;99.90
38582;DHT22;24349;53.720;10.014;2023-06-10T11:44:52;28.80;99.90
38582;DHT22;24349;53.720;10.014;2023-06-10T11:47:18;29.00;99.90
38582;DHT22;24349;53.720;10.014;2023-06-10T11:49:45;29.30;99.90
38582;DHT22;24349;53.720;10.014;2023-06-10T11:52:11;29.50;99.90
38582;DHT22;24349;53.720;10.014;2023-06-10T11:54:38;29.50;99.90
38582;DHT22;24349;53.720;10.014;2023-06-10T11:57:04;29.10;99.90
38582;DHT22;24349;53.720;10.014;2023-06-10T11:59:30;29.10;99.90
38582;DHT22;24349;53.720;10.014;2023-06-10T12:01:56;28.70;99.90
38582;DHT22;24349;53.720;10.014;2023-06-10T12:04:22;29.00;99.90
38582;DHT22;24349;53.720;10.014;2023-06-10T12:06:51;29.10;99.90
38582;DHT22;24349;53.720;10.014;2023-06-10T12:09:25;29.60;99.90
38582;DHT22;24349;53.720;10.014;2023-06-10T12:12:02;29.60;99.90
38582;DHT22;24349;53.720;10.014;2023-06-10T12:14:54;29.80;99.90
38582;DHT22;24349;53.720;10.014;2023-06-10T12:17:21;29.80;99.90
38582;DHT22;24349;53.720;10.014;2023-06-10T12:19:48;29.80;92.10
38582;DHT22;24349;53.720;10.014;2023-06-10T12:22:14;30.00;99.90
38582;DHT22;24349;53.720;10.014;2023-06-10T12:24:58;29.90;90.70
38582;DHT22;24349;53.720;10.014;2023-06-10T12:27:29;29.70;79.20
38582;DHT22;24349;53.720;10.014;2023-06-10T12:29:55;29.70;91.00
38582;DHT22;24349;53.720;10.014;2023-06-10T12:32:22;29.50;79.60
38582;DHT22;24349;53.720;10.014;2023-06-10T12:35:05;29.70;99.90
38582;DHT22;24349;53.720;10.014;2023-06-10T12:37:31;30.00;92.90
38582;DHT22;24349;53.720;10.014;2023-06-10T12:40:01;30.10;91.70
38582;DHT22;24349;53.720;10.014;2023-06-10T12:42:29;29.90;99.90
38582;DHT22;24349;53.720;10.014;2023-06-10T12:44:56;29.90;99.90
38582;DHT22;24349;53.720;10.014;2023-06-10T12:47:36;29.80;64.70
38582;DHT22;24349;53.720;10.014;2023-06-10T12:50:05;29.20;87.50
38582;DHT22;24349;53.720;10.014;2023-06-10T12:52:32;29.10;99.90
38582;DHT22;24349;53.720;10.014;2023-06-10T12:54:58;29.10;99.90
38582;DHT22;24349;53.720;10.014;2023-06-10T12:57:24;29.30;99.90
38582;DHT22;24349;53.720;10.014;2023-06-10T12:59:50;29.50;99.90
38582;DHT22;24349;53.720;10.014;2023-06-10T13:02:21;29.30;99.90
38582;DHT22;24349;53.720;10.014;2023-06-10T13:04:49;29.30;99.90
38582;DHT22;24349;53.720;10.014;2023-06-10T13:07:15;29.30;99.90
38582;DHT22;24349;53.720;10.014;2023-06-10T13:09:41;29.40;99.90
38582;DHT22;24349;53.720;10.014;2023-06-10T13:12:07;29.10;99.90
38582;DHT22;24349;53.720;10.014;2023-06-10T13:14:33;29.20;99.90
38582;DHT22;24349;53.720;10.014;2023-06-10T13:16:59;29.60;99.90
38582;DHT22;24349;53.720;10.014;2023-06-10T13:19:25;29.90;99.90
38582;DHT22;24349;53.720;10.014;2023-06-10T13:21:51;30.00;99.90
38582;DHT22;24349;53.720;10.014;2023-06-10T13:24:17;29.80;99.90
38582;DHT22;24349;53.720;10.014;2023-06-10T13:26:43;29.40;99.90
38582;DHT22;24349;53.720;10.014;2023-06-10T13:29:09;29.50;99.90
38582;DHT22;24349;53.720;10.014;2023-06-10T13:31:39;29.70;99.90
38582;DHT22;24349;53.720;10.014;2023-06-10T13:34:05;29.00;95.60
38582;DHT22;24349;53.720;10.014;2023-06-10T13:36:32;29.10;99.90
38582;DHT22;24349;53.720;10.014;2023-06-10T13:38:57;29.10;99.90
38582;DHT22;24349;53.720;10.014;2023-06-10T13:41:23;28.80;99.90
38582;DHT22;24349;53.720;10.014;2023-06-10T13:43:48;28.90;99.90
38582;DHT22;24349;53.720;10.014;2023-06-10T13:46:14;29.10;99.90
38582;DHT22;24349;53.720;10.014;2023-06-10T13:48:40;28.90;99.90
38582;DHT22;24349;53.720;10.014;2023-06-10T13:51:06;28.80;99.90
38582;DHT22;24349;53.720;10.014;2023-06-10T13:53:32;28.80;99.90
38582;DHT22;24349;53.720;10.014;2023-06-10T13:55:57;28.80;99.90
38582;DHT22;24349;53.720;10.014;2023-06-10T13:58:23;28.80;99.90
38582;DHT22;24349;53.720;10.014;2023-06-10T14:00:49;28.70;99.90
38582;DHT22;24349;53.720;10.014;2023-06-10T14:03:14;28.40;99.90
38582;DHT22;24349;53.720;10.014;2023-06-10T14:05:40;28.50;99.90
38582;DHT22;24349;53.720;10.014;2023-06-10T14:08:07;28.40;99.90
38582;DHT22;24349;53.720;10.014;2023-06-10T14:10:32;28.20;99.90
38582;DHT22;24349;53.720;10.014;2023-06-10T14:12:58;28.30;99.90
38582;DHT22;24349;53.720;10.014;2023-06-10T14:15:24;28.50;99.90
38582;DHT22;24349;53.720;10.014;2023-06-10T14:17:49;28.40;99.90
38582;DHT22;24349;53.720;10.014;2023-06-10T14:20:15;28.40;99.90
38582;DHT22;24349;53.720;10.014;2023-06-10T14:22:41;28.50;99.90
38582;DHT22;24349;53.720;10.014;2023-06-10T14:25:07;28.50;99.90
38582;DHT22;24349;53.720;10.014;2023-06-10T14:27:32;28.30;99.90
38582;DHT22;24349;53.720;10.014;2023-06-10T14:29:58;28.50;99.90
38582;DHT22;24349;53.720;10.014;2023-06-10T14:32:24;28.50;99.90
38582;DHT22;24349;53.720;10.014;2023-06-10T14:34:49;28.50;99.90
38582;DHT22;24349;53.720;10.014;2023-06-10T14:37:15;28.40;99.90
38582;DHT22;24349;53.720;10.014;2023-06-10T14:39:41;27.80;99.90
38582;DHT22;24349;53.720;10.014;2023-06-10T14:42:06;28.00;99.90
38582;DHT22;24349;53.720;10.014;2023-06-10T14:44:32;28.30;99.90
38582;DHT22;24349;53.720;10.014;2023-06-10T14:46:58;27.80;99.90
38582;DHT22;24349;53.720;10.014;2023-06-10T14:49:23;27.60;99.90
38582;DHT22;24349;53.720;10.014;2023-06-10T14:51:49;27.80;99.90
38582;DHT22;24349;53.720;10.014;2023-06-10T14:54:15;27.90;99.90
38582;DHT22;24349;53.720;10.014;2023-06-10T14:56:41;27.90;99.90
38582;DHT22;24349;53.720;10.014;2023-06-10T14:59:07;28.00;99.90
38582;DHT22;24349;53.720;10.014;2023-06-10T15:01:32;27.80;99.90
38582;DHT22;24349;53.720;10.014;2023-06-10T15:03:58;27.90;99.90
38582;DHT22;24349;53.720;10.014;2023-06-10T15:06:23;27.90;99.90
38582;DHT22;24349;53.720;10.014;2023-06-10T15:08:49;28.00;99.90
38582;DHT22;24349;53.720;10.014;2023-06-10T15:11:15;27.90;99.90
38582;DHT22;24349;53.720;10.014;2023-06-10T15:13:41;28.00;99.90
38582;DHT22;24349;53.720;10.014;2023-06-10T15:16:06;28.10;99.90
38582;DHT22;24349;53.720;10.014;2023-06-10T15:18:32;27.90;99.90
38582;DHT22;24349;53.720;10.014;2023-06-10T15:20:58;27.70;99.90
38582;DHT22;24349;53.720;10.014;2023-06-10T15:23:24;27.80;99.90
38582;DHT22;24349;53.720;10.014;2023-06-10T15:25:50;27.70;99.90
38582;DHT22;24349;53.720;10.014;2023-06-10T15:28:15;27.60;99.90
38582;DHT22;24349;53.720;10.014;2023-06-10T15:30:41;27.50;99.90